Time;durP1;ratioP1;P1;durP2;ratioP2;P2;SDS_P1;SDS_P2;PMS_P1;PMS_P2;Temp;Humidity;BMP_temperature;BMP_pressure;BME280_temperature;BME280_humidity;BME280_pressure;Samples;Min_cycle;Max_cycle;Signal;HPM_P1;HPM_P2
2022/08/19 00:00:36;;;;;;;38.63;3.17;;;;;;;26.58;57.68;98613.31;7315270;19;130382;-38
2022/08/19 00:03:02;;;;;;;18.45;1.92;;;;;;;26.57;58.09;98617.78;7315651;19;129021;-38
2022/08/19 00:05:27;;;;;;;19.37;1.80;;;;;;;26.59;57.94;98631.56;7312491;19;128832;-38
2022/08/19 00:07:53;;;;;;;15.43;1.57;;;;;;;26.58;58.10;98639.66;7313341;19;129481;-38
2022/08/19 00:10:20;;;;;;;37.10;3.13;;;;;;;26.49;58.31;98615.31;7314488;19;131139;-38
2022/08/19 00:12:45;;;;;;;15.82;1.67;;;;;;;26.60;58.66;98632.38;7315784;19;129122;-38
2022/08/19 00:15:13;;;;;;;14.87;1.50;;;;;;;26.28;54.74;98625.91;7311985;19;129274;-38
2022/08/19 00:17:40;;;;;;;16.77;1.70;;;;;;;26.08;53.44;98616.25;7314196;19;129571;-38
2022/08/19 00:20:08;;;;;;;37.45;3.05;;;;;;;26.31;56.28;98622.88;7314809;19;129399;-38
2022/08/19 00:22:34;;;;;;;20.95;2.03;;;;;;;26.44;57.58;98628.25;7315360;19;129534;-38
2022/08/19 00:24:59;;;;;;;12.97;1.40;;;;;;;26.50;58.23;98632.75;7313623;19;129798;-38
2022/08/19 00:27:25;;;;;;;16.23;1.73;;;;;;;26.55;57.54;98645.34;7314242;19;130750;-37
2022/08/19 00:29:50;;;;;;;35.27;2.87;;;;;;;26.47;57.06;98638.41;7314696;19;130339;-37
2022/08/19 00:32:16;;;;;;;22.73;2.10;;;;;;;26.57;57.01;98654.69;7315458;19;129278;-38
2022/08/19 00:34:41;;;;;;;18.07;1.97;;;;;;;26.59;58.45;98657.94;7313081;19;130209;-38
2022/08/19 00:37:07;;;;;;;14.80;1.57;;;;;;;26.58;58.09;98651.03;7314236;19;129482;-38
2022/08/19 00:39:32;;;;;;;26.63;2.37;;;;;;;26.51;58.58;98650.19;7314195;19;129638;-38
2022/08/19 00:41:58;;;;;;;16.53;1.60;;;;;;;26.58;58.11;98658.94;7315274;19;129252;-39
2022/08/19 00:44:26;;;;;;;15.87;1.70;;;;;;;26.59;59.23;98665.03;7313399;19;129132;-38
2022/08/19 00:46:54;;;;;;;29.35;2.83;;;;;;;26.58;57.25;98668.66;7314453;19;130533;-38
2022/08/19 00:49:30;;;;;;;33.80;3.10;;;;;;;26.58;57.99;98677.41;7313625;19;132794;-38
2022/08/19 00:52:02;;;;;;;33.25;3.10;;;;;;;26.58;59.29;98660.75;7313507;19;128940;-39
2022/08/19 00:54:31;;;;;;;8.52;1.23;;;;;;;26.57;58.91;98654.69;7311001;19;128761;-39
2022/08/19 00:56:58;;;;;;;21.05;2.00;;;;;;;26.58;58.29;98648.41;7313727;19;129457;-39
2022/08/19 00:59:24;;;;;;;17.75;1.92;;;;;;;26.58;58.55;98655.50;7313352;19;130431;-38
2022/08/19 01:01:50;;;;;;;30.80;2.58;;;;;;;26.30;54.16;98646.78;7313151;19;128822;-38
2022/08/19 01:04:15;;;;;;;16.43;1.57;;;;;;;26.04;53.49;98631.63;7313167;19;128884;-38
2022/08/19 01:06:41;;;;;;;15.23;1.70;;;;;;;26.30;56.31;98658.16;7312606;19;129986;-42
2022/08/19 01:09:08;;;;;;;23.67;2.07;;;;;;;26.39;57.60;98638.56;7310660;19;130328;-38
2022/08/19 01:11:38;;;;;;;35.88;3.08;;;;;;;26.50;57.99;98643.28;7313341;19;129201;-38
2022/08/19 01:14:05;;;;;;;10.90;1.33;;;;;;;26.53;57.97;98640.25;7313111;19;129127;-38
2022/08/19 01:16:32;;;;;;;;;;;;;;;26.63;59.94;98648.63;7313412;19;129206;-38
2022/08/19 01:18:57;;;;;;;13.85;1.52;;;;;;;26.61;56.72;98645.38;7313433;19;129249;-38
2022/08/19 01:21:42;;;;;;;37.23;3.17;;;;;;;26.61;58.44;98645.38;7314609;19;129208;-39
2022/08/19 01:24:07;;;;;;;40.30;3.22;;;;;;;26.60;57.06;98648.19;7312148;19;129921;-38
2022/08/19 01:26:40;;;;;;;20.30;2.07;;;;;;;26.56;59.14;98646.97;7313568;19;129616;-36
2022/08/19 01:29:07;;;;;;;14.32;1.38;;;;;;;26.60;57.96;98659.56;7309679;19;130123;-36
2022/08/19 01:31:33;;;;;;;23.60;2.50;;;;;;;26.63;58.28;98674.19;7312369;19;128903;-38
2022/08/19 01:34:00;;;;;;;32.13;2.80;;;;;;;26.55;58.14;98658.50;7311849;19;130951;-38
2022/08/19 01:36:33;;;;;;;16.80;1.70;;;;;;;26.61;59.92;98671.75;7312906;19;129585;-38
2022/08/19 01:39:00;;;;;;;3.70;0.82;;;;;;;26.60;58.05;98675.41;7312276;19;131171;-38
2022/08/19 01:41:25;;;;;;;19.92;2.10;;;;;;;26.62;57.74;98667.28;7313042;19;129523;-38
2022/08/19 01:43:52;;;;;;;34.97;2.90;;;;;;;26.63;58.28;98672.38;7311313;19;128920;-38
2022/08/19 01:46:18;;;;;;;;;;;;;;;26.70;59.85;98664.53;7313938;19;129763;-38
2022/08/19 01:48:44;;;;;;;8.38;0.93;;;;;;;26.33;54.29;98660.41;7311117;19;130455;-36
2022/08/19 01:51:11;;;;;;;14.70;1.73;;;;;;;26.18;53.17;98654.41;7311549;19;129034;-36
2022/08/19 01:53:38;;;;;;;38.42;3.53;;;;;;;26.30;55.42;98647.63;7310824;19;130178;-38
2022/08/19 01:56:04;;;;;;;13.80;1.35;;;;;;;26.45;57.58;98660.69;7312764;19;130169;-39
2022/08/19 01:58:41;;;;;;;;;;;;;;;26.57;58.80;98665.25;7312728;19;129408;-38
2022/08/19 02:01:07;;;;;;;14.32;1.50;;;;;;;26.57;57.44;98674.97;7312296;19;128900;-38
2022/08/19 02:03:34;;;;;;;29.50;2.60;;;;;;;26.57;57.42;98680.25;7310961;19;129478;-38
2022/08/19 02:06:02;;;;;;;25.15;2.38;;;;;;;26.56;57.74;98671.50;7310882;19;130065;-38
2022/08/19 02:08:29;;;;;;;17.48;1.85;;;;;;;26.56;57.56;98668.88;7311005;19;130573;-38
2022/08/19 02:10:54;;;;;;;;;;;;;;;26.66;59.76;98671.19;7314038;19;130431;-38
2022/08/19 02:13:20;;;;;;;13.13;1.43;;;;;;;26.60;57.52;98651.66;7311235;19;129825;-38
2022/08/19 02:15:45;;;;;;;25.33;2.37;;;;;;;26.59;57.50;98643.94;7310976;19;130249;-38
2022/08/19 02:18:11;;;;;;;16.07;1.60;;;;;;;26.51;57.35;98608.00;7311627;19;130257;-37
2022/08/19 02:20:38;;;;;;;23.20;2.57;;;;;;;26.53;58.08;98611.25;7311644;19;129106;-37
2022/08/19 02:23:05;;;;;;;36.33;3.20;;;;;;;26.58;58.19;98629.13;7310749;19;128953;-38
2022/08/19 02:25:30;;;;;;;33.72;2.85;;;;;;;26.57;58.70;98641.50;7308618;19;130439;-37
2022/08/19 02:27:56;;;;;;;15.00;1.57;;;;;;;26.59;58.23;98650.03;7310531;19;130306;-38
2022/08/19 02:30:21;;;;;;;13.57;1.47;;;;;;;26.59;57.85;98657.94;7310963;19;128939;-37
2022/08/19 02:32:47;;;;;;;33.57;3.03;;;;;;;26.59;57.72;98665.84;7310722;19;128820;-38
2022/08/19 02:35:13;;;;;;;22.23;2.30;;;;;;;26.33;54.62;98668.31;7307696;19;129976;-38
2022/08/19 02:40:23;;;;;;;15.68;1.75;;;;;;;26.32;56.75;98669.34;7310763;19;128874;-38
2022/08/19 02:42:49;;;;;;;16.70;1.87;;;;;;;26.44;57.16;98659.88;7310251;19;129193;-38
2022/08/19 02:45:14;;;;;;;42.07;3.50;;;;;;;26.52;57.14;98651.00;7307309;19;130807;-38
2022/08/19 02:47:41;;;;;;;11.10;1.50;;;;;;;26.54;57.65;98649.78;7310297;19;129161;-37
2022/08/19 02:50:07;;;;;;;13.15;1.48;;;;;;;26.48;57.21;98634.75;7310918;19;129641;-37
2022/08/19 02:52:33;;;;;;;13.87;1.67;;;;;;;26.57;57.80;98652.06;7309569;19;128971;-38
2022/08/19 02:54:59;;;;;;;38.78;3.35;;;;;;;26.58;56.96;98658.13;7307848;19;129050;-37
2022/08/19 02:57:25;;;;;;;17.43;1.77;;;;;;;26.58;58.39;98651.03;7310774;19;130937;-37
2022/08/19 02:59:51;;;;;;;14.43;1.47;;;;;;;26.58;58.07;98661.59;7310443;19;128866;-38
2022/08/19 03:02:16;;;;;;;18.77;2.10;;;;;;;26.59;57.01;98668.47;7309547;19;129436;-38
2022/08/19 03:04:42;;;;;;;40.90;3.40;;;;;;;26.61;58.13;98682.28;7308363;19;129471;-38
2022/08/19 03:07:08;;;;;;;16.33;1.67;;;;;;;26.60;58.04;98675.41;7310041;19;129299;-37
2022/08/19 03:09:37;;;;;;;13.65;1.60;;;;;;;26.59;58.83;98679.03;7307797;19;129174;-38
2022/08/19 03:12:04;;;;;;;5.82;0.88;;;;;;;26.60;58.68;98675.41;7309413;19;129097;-37
2022/08/19 03:14:34;;;;;;;42.97;3.80;;;;;;;26.60;58.44;98675.41;7308644;19;131158;-37
2022/08/19 03:17:00;;;;;;;23.60;2.35;;;;;;;26.59;58.57;98665.84;7310319;19;129320;-38
2022/08/19 03:19:25;;;;;;;22.90;2.10;;;;;;;26.60;58.96;98654.31;7316061;19;129396;-38
2022/08/19 03:21:51;;;;;;;11.80;1.33;;;;;;;26.32;55.38;98648.25;7315973;19;129630;-38
2022/08/19 03:24:18;;;;;;;44.60;3.97;;;;;;;26.14;53.36;98652.38;7315400;19;130167;-37
2022/08/19 03:26:45;;;;;;;;;;;;;;;26.29;58.60;98640.72;7318004;19;130401;-38
2022/08/19 03:29:11;;;;;;;14.70;1.60;;;;;;;26.46;57.91;98657.06;7314637;19;129626;-37
2022/08/19 03:31:38;;;;;;;34.67;3.87;;;;;;;26.51;57.92;98662.56;7314976;19;129083;-38
2022/08/19 03:34:04;;;;;;;51.85;4.47;;;;;;;26.55;57.80;98677.78;7314592;19;129468;-38
2022/08/19 03:36:30;;;;;;;14.77;1.67;;;;;;;26.57;57.63;98678.44;7316644;19;130347;-38
2022/08/19 03:39:00;;;;;;;19.10;2.03;;;;;;;26.52;58.25;98661.56;7316486;19;129323;-38
2022/08/19 03:41:36;;;;;;;19.05;1.85;;;;;;;26.58;58.53;98666.84;7315559;19;128832;-37
2022/08/19 03:44:02;;;;;;;35.05;3.28;;;;;;;26.60;57.85;98670.13;7314419;19;130280;-38
2022/08/19 03:46:30;;;;;;;23.90;2.33;;;;;;;26.59;58.40;98676.38;7316512;19;130035;-37
2022/08/19 03:48:59;;;;;;;3.38;0.70;;;;;;;26.48;57.57;98666.38;7314336;19;129477;-37
2022/08/19 03:51:30;;;;;;;18.33;1.95;;;;;;;26.60;59.28;98679.84;7315160;19;129712;-38
2022/08/19 03:53:58;;;;;;;15.82;1.73;;;;;;;26.59;57.55;98676.38;7315119;19;130196;-38
2022/08/19 03:56:25;;;;;;;43.03;3.60;;;;;;;26.60;58.15;98679.84;7314765;19;130445;-38
2022/08/19 03:58:52;;;;;;;18.77;2.00;;;;;;;26.49;58.06;98662.75;7316056;19;128920;-38
2022/08/19 04:01:19;;;;;;;17.63;1.80;;;;;;;26.59;58.73;98681.66;7315535;19;129310;-37
2022/08/19 04:03:46;;;;;;;10.95;1.33;;;;;;;26.61;57.97;98684.13;7314083;19;130172;-37
2022/08/19 04:06:17;;;;;;;39.67;3.40;;;;;;;26.62;59.42;98683.09;7314337;19;129477;-38
2022/08/19 04:08:45;;;;;;;22.70;2.22;;;;;;;26.33;54.78;98678.06;7314545;19;128713;-39
2022/08/19 04:11:13;;;;;;;17.85;2.00;;;;;;;26.16;53.86;98688.06;7315724;19;129460;-38
2022/08/19 04:13:38;;;;;;;17.13;1.90;;;;;;;26.32;56.37;98687.78;7314187;19;129265;-38
2022/08/19 04:16:05;;;;;;;28.20;2.53;;;;;;;26.46;57.15;98688.69;7314931;19;130863;-38
2022/08/19 04:18:32;;;;;;;23.90;2.17;;;;;;;26.52;57.19;98683.47;7316248;19;129968;-38
2022/08/19 04:20:59;;;;;;;17.42;1.80;;;;;;;26.46;57.55;98668.41;7315241;19;128792;-38
2022/08/19 04:23:25;;;;;;;6.72;1.13;;;;;;;26.59;57.99;98671.13;7313908;19;129157;-38
2022/08/19 04:25:50;;;;;;;32.80;3.10;;;;;;;26.59;57.84;98673.75;7313649;19;129637;-39
2022/08/19 04:28:16;;;;;;;23.20;2.07;;;;;;;26.60;58.13;98664.84;7314534;19;128918;-39
2022/08/19 04:30:45;;;;;;;17.37;2.00;;;;;;;26.52;58.03;98658.91;7314902;19;128960;-36
2022/08/19 04:33:12;;;;;;;15.35;1.55;;;;;;;26.62;57.97;98678.66;7313957;19;130310;-38
2022/08/19 04:35:41;;;;;;;32.05;2.85;;;;;;;26.61;57.32;98677.00;7313820;19;130396;-39
2022/08/19 04:38:07;;;;;;;34.42;3.05;;;;;;;26.60;57.86;98685.94;7314457;19;129255;-38
2022/08/19 04:43:18;;;;;;;25.63;2.33;;;;;;;26.62;58.51;98678.66;7313993;19;129781;-37
2022/08/19 04:45:45;;;;;;;14.80;1.63;;;;;;;26.62;58.19;98681.28;7313533;19;131448;-38
2022/08/19 04:48:11;;;;;;;40.03;3.40;;;;;;;26.55;58.28;98667.25;7314228;19;129367;-38
2022/08/19 04:50:40;;;;;;;21.00;2.20;;;;;;;26.63;59.52;98684.72;7314705;19;129105;-39
2022/08/19 04:53:06;;;;;;;14.25;1.63;;;;;;;26.63;57.71;98684.72;7313807;19;129426;-37
2022/08/19 04:55:31;;;;;;;18.00;1.90;;;;;;;26.40;55.27;98690.25;7310737;19;130525;-38
2022/08/19 04:57:57;;;;;;;32.63;2.97;;;;;;;26.16;52.98;98692.53;7313749;19;129138;-38
2022/08/19 05:00:22;;;;;;;24.63;2.30;;;;;;;26.28;55.19;98691.78;7314674;19;128915;-38
2022/08/19 05:02:49;;;;;;;16.60;1.70;;;;;;;26.43;57.39;98695.16;7311629;19;130064;-38
2022/08/19 05:05:14;;;;;;;9.25;1.38;;;;;;;26.52;57.58;98686.09;7310885;19;130438;-38
2022/08/19 05:07:40;;;;;;;38.60;3.23;;;;;;;26.56;57.54;98676.78;7313500;19;129045;-38
2022/08/19 05:10:07;;;;;;;17.60;2.00;;;;;;;26.58;58.01;98677.41;7314622;19;129808;-38
2022/08/19 05:12:33;;;;;;;13.75;1.63;;;;;;;26.59;57.66;98678.22;7313396;19;130514;-38
2022/08/19 05:14:59;;;;;;;8.43;1.15;;;;;;;26.59;57.20;98689.56;7310124;19;129917;-38
2022/08/19 05:17:26;;;;;;;34.53;3.13;;;;;;;26.60;57.58;98696.50;7313090;19;129341;-38
2022/08/19 05:22:37;;;;;;;15.18;1.73;;;;;;;26.61;57.73;98707.84;7313505;19;128926;-38
2022/08/19 05:25:11;;;;;;;18.25;1.88;;;;;;;26.59;59.34;98721.22;7311235;19;130513;-37
2022/08/19 05:27:37;;;;;;;6.88;0.98;;;;;;;26.60;58.33;98724.66;7313212;19;129396;-38
2022/08/19 05:30:03;;;;;;;36.77;3.17;;;;;;;26.61;57.70;98734.22;7313544;19;128993;-37
2022/08/19 05:32:29;;;;;;;24.23;2.40;;;;;;;26.52;58.12;98711.63;7313265;19;129014;-38
2022/08/19 05:34:54;;;;;;;15.03;1.87;;;;;;;26.62;57.24;98730.56;7311134;19;129269;-37
2022/08/19 05:37:20;;;;;;;20.77;2.23;;;;;;;26.62;58.54;98735.84;7313335;19;129308;-38
2022/08/19 05:39:45;;;;;;;29.20;2.70;;;;;;;26.62;58.44;98733.22;7313457;19;130006;-38
2022/08/19 05:42:12;;;;;;;15.00;1.67;;;;;;;26.61;58.20;98742.13;7311919;19;130710;-38
2022/08/19 05:44:43;;;;;;;16.30;1.65;;;;;;;26.17;53.82;98752.94;7310470;19;130540;-37
2022/08/19 05:47:10;;;;;;;16.92;1.92;;;;;;;26.19;54.31;98756.19;7312810;19;129147;-37
2022/08/19 05:49:36;;;;;;;32.15;3.10;;;;;;;26.41;57.03;98770.97;7309793;19;129574;-38
2022/08/19 05:52:06;;;;;;;24.90;2.43;;;;;;;26.50;58.70;98764.56;7312516;19;130190;-38
2022/08/19 05:54:33;;;;;;;16.83;1.75;;;;;;;26.54;57.64;98776.34;7311951;19;130695;-37
2022/08/19 05:57:00;;;;;;;15.20;1.80;;;;;;;26.49;58.19;98768.22;7313038;19;129126;-37
2022/08/19 05:59:25;;;;;;;31.20;2.97;;;;;;;26.58;58.30;98782.88;7312188;19;129126;-38
2022/08/19 06:01:54;;;;;;;20.37;2.13;;;;;;;26.59;57.50;98781.84;7312396;19;130082;-38
2022/08/19 06:04:20;;;;;;;22.13;2.25;;;;;;;26.58;57.84;98780.22;7310360;19;129206;-38
2022/08/19 06:06:51;;;;;;;14.43;1.67;;;;;;;26.60;58.55;98786.13;7312130;19;128996;-38
2022/08/19 06:09:18;;;;;;;23.15;2.28;;;;;;;26.59;57.63;98789.75;7309412;19;129058;-38
2022/08/19 06:11:53;;;;;;;40.38;3.75;;;;;;;26.53;59.45;98784.44;7311268;19;129559;-38
2022/08/19 06:14:22;;;;;;;24.02;2.45;;;;;;;26.61;58.72;98813.34;7312035;19;130710;-38
2022/08/19 06:16:48;;;;;;;19.02;1.80;;;;;;;26.61;57.82;98816.75;7312058;19;128818;-38
2022/08/19 06:19:16;;;;;;;9.93;1.37;;;;;;;26.55;59.01;98821.97;7311889;19;129032;-38
2022/08/19 06:21:44;;;;;;;35.78;3.28;;;;;;;26.59;58.57;98837.22;7310864;19;130259;-38
2022/08/19 06:24:13;;;;;;;33.33;3.17;;;;;;;26.60;57.98;98845.97;7310344;19;130278;-38
2022/08/19 06:26:41;;;;;;;8.60;1.38;;;;;;;26.59;58.46;98846.97;7312541;19;128939;-38
2022/08/19 06:29:10;;;;;;;16.85;1.73;;;;;;;26.53;57.91;98840.63;7310472;19;130474;-38
2022/08/19 06:31:36;;;;;;;39.22;4.07;;;;;;;26.17;53.66;98850.41;7311041;19;130155;-38
2022/08/19 06:34:04;;;;;;;37.33;3.35;;;;;;;26.24;55.31;98850.47;7310995;19;130675;-38
2022/08/19 06:36:35;;;;;;;14.15;1.60;;;;;;;26.42;58.33;98856.97;7312135;19;129087;-38
2022/08/19 06:39:07;;;;;;;18.45;2.35;;;;;;;26.50;58.85;98854.19;7310553;19;129250;-38
2022/08/19 06:41:39;;;;;;;28.90;3.28;;;;;;;26.54;58.59;98870.44;7310082;19;130152;-38
2022/08/19 06:44:05;;;;;;;32.90;3.08;;;;;;;26.56;57.98;98857.91;7308633;19;129564;-37
2022/08/19 06:46:30;;;;;;;34.00;3.23;;;;;;;26.53;58.03;98848.53;7311203;19;129032;-38
2022/08/19 06:48:56;;;;;;;15.10;1.83;;;;;;;26.58;58.11;98858.50;7309874;19;129092;-37
2022/08/19 06:51:23;;;;;;;22.80;2.60;;;;;;;26.60;57.71;98862.59;7310191;19;130089;-38
2022/08/19 06:53:50;;;;;;;36.33;3.22;;;;;;;26.61;58.11;98871.34;7313488;19;129547;-39
2022/08/19 06:56:19;;;;;;;22.70;2.33;;;;;;;26.59;58.13;98868.88;7317483;19;129168;-38
2022/08/19 06:58:44;;;;;;;15.80;1.77;;;;;;;26.60;57.44;98877.59;7318187;19;128816;-37
2022/08/19 07:01:10;;;;;;;19.60;1.97;;;;;;;26.62;57.59;98886.13;7316765;19;130053;-38
2022/08/19 07:03:38;;;;;;;25.63;2.73;;;;;;;26.55;58.56;98883.44;7315543;19;129367;-36
2022/08/19 07:06:10;;;;;;;35.78;3.42;;;;;;;26.60;59.11;98883.69;7317525;19;129023;-39
2022/08/19 07:08:36;;;;;;;15.15;1.80;;;;;;;26.60;58.53;98888.97;7317520;19;129452;-38
2022/08/19 07:11:06;;;;;;;21.50;2.15;;;;;;;26.60;59.56;98894.25;7317007;19;130113;-38
2022/08/19 07:13:36;;;;;;;8.60;1.23;;;;;;;26.59;57.75;98884.69;7315470;19;129852;-38
2022/08/19 07:16:11;;;;;;;43.58;3.80;;;;;;;26.31;54.47;98890.91;7316388;19;128834;-38
2022/08/19 07:18:37;;;;;;;27.02;2.70;;;;;;;26.13;53.35;98867.59;7317863;19;129195;-38
2022/08/19 07:21:27;;;;;;;15.73;1.65;;;;;;;26.33;57.31;98876.53;7317593;19;129383;-38
2022/08/19 07:23:54;;;;;;;18.17;2.05;;;;;;;26.47;57.31;98866.94;7316048;19;130392;-38
2022/08/19 07:26:23;;;;;;;16.27;1.73;;;;;;;26.52;58.37;98865.38;7316337;19;128996;-38
2022/08/19 07:28:49;;;;;;;25.52;2.50;;;;;;;26.55;57.68;98867.63;7315670;19;129138;-38
2022/08/19 07:31:18;;;;;;;36.53;3.47;;;;;;;26.60;58.04;98886.34;7316449;19;129246;-38
2022/08/19 07:33:45;;;;;;;7.40;1.23;;;;;;;26.63;58.18;98885.94;7315987;19;129125;-38
2022/08/19 07:36:13;;;;;;;8.57;1.42;;;;;;;26.60;58.24;98886.34;7316806;19;129194;-38
2022/08/19 07:38:41;;;;;;;10.32;1.42;;;;;;;26.63;58.32;98896.50;7316677;19;128789;-38
2022/08/19 07:41:09;;;;;;;36.17;3.30;;;;;;;26.54;58.18;98889.69;7316509;19;129949;-38
2022/08/19 07:43:35;;;;;;;20.30;2.15;;;;;;;26.64;58.36;98903.38;7315235;19;129798;-35
2022/08/19 07:46:00;;;;;;;9.77;1.17;;;;;;;26.64;57.63;98908.66;7316267;19;129285;-38
2022/08/19 07:48:28;;;;;;;15.17;1.77;;;;;;;26.65;58.43;98901.59;7315247;19;129645;-39
2022/08/19 07:50:56;;;;;;;36.03;3.17;;;;;;;26.64;58.30;98910.50;7315848;19;131042;-38
2022/08/19 07:53:22;;;;;;;6.35;1.08;;;;;;;26.64;57.83;98897.31;7315270;19;129319;-38
2022/08/19 07:55:48;;;;;;;14.18;1.55;;;;;;;26.64;58.50;98898.13;7316353;19;129391;-38
2022/08/19 07:58:18;;;;;;;18.27;2.20;;;;;;;26.65;59.21;98889.25;7315408;19;128755;-38
2022/08/19 08:00:47;;;;;;;28.23;2.63;;;;;;;26.65;58.79;98899.81;7316134;19;130355;-38
2022/08/19 08:03:14;;;;;;;20.58;2.17;;;;;;;26.34;54.51;98896.63;7315284;19;131182;-38
2022/08/19 08:11:08;;;;;;;16.63;2.08;;;;;;;26.48;58.01;98913.38;7316143;19;129186;-39
2022/08/19 08:13:34;;;;;;;25.27;2.43;;;;;;;26.55;57.60;98914.25;7314307;19;129719;-38
2022/08/19 08:16:01;;;;;;;35.35;3.05;;;;;;;26.55;57.56;98915.09;7315527;19;128981;-38
2022/08/19 08:18:26;;;;;;;17.67;1.92;;;;;;;26.56;57.39;98916.69;7316253;19;128965;-38
2022/08/19 08:20:52;;;;;;;13.83;1.43;;;;;;;26.59;57.30;98916.31;7314750;19;131079;-38
2022/08/19 08:23:24;;;;;;;22.33;2.23;;;;;;;26.60;57.84;98912.69;7313339;19;129272;-38
2022/08/19 08:25:51;;;;;;;33.17;2.95;;;;;;;26.59;56.91;98921.59;7315738;19;129742;-38
2022/08/19 08:28:17;;;;;;;20.08;2.17;;;;;;;26.59;56.81;98924.22;7315506;19;129121;-39
2022/08/19 08:30:45;;;;;;;13.63;1.65;;;;;;;26.60;57.76;98922.41;7315263;19;130862;-38
2022/08/19 08:33:11;;;;;;;14.25;1.73;;;;;;;26.58;57.88;98925.25;7313757;19;129872;-38
2022/08/19 08:35:36;;;;;;;39.80;3.60;;;;;;;26.59;57.80;98928.72;7314295;19;128953;-38
2022/08/19 08:38:04;;;;;;;8.53;1.17;;;;;;;26.60;58.31;98923.25;7316266;19;129021;-37
2022/08/19 08:40:41;;;;;;;15.50;1.80;;;;;;;26.59;57.95;98921.59;7315536;19;130523;-37
2022/08/19 08:43:18;;;;;;;17.10;1.88;;;;;;;26.59;59.13;98932.16;7313826;19;130642;-38
2022/08/19 08:46:07;;;;;;;14.23;1.57;;;;;;;26.60;60.30;98936.44;7315038;19;129021;-37
2022/08/19 08:48:46;;;;;;;14.85;1.60;;;;;;;26.61;59.73;98942.53;7313728;19;128979;-38
2022/08/19 08:51:23;;;;;;;13.73;1.65;;;;;;;26.17;53.16;98947.09;7314650;19;130225;-38
2022/08/19 08:53:51;;;;;;;44.15;3.97;;;;;;;26.20;54.61;98942.28;7313000;19;129100;-37
2022/08/19 08:56:18;;;;;;;17.65;1.92;;;;;;;26.40;57.65;98947.75;7314665;19;129351;-38
2022/08/19 08:58:43;;;;;;;8.52;1.38;;;;;;;26.48;57.54;98939.72;7314221;19;129059;-37
2022/08/19 09:01:11;;;;;;;14.57;1.70;;;;;;;26.53;58.12;98943.44;7314221;19;130025;-38
2022/08/19 09:03:39;;;;;;;30.67;2.95;;;;;;;26.56;58.02;98943.06;7312888;19;131020;-38
2022/08/19 09:06:33;;;;;;;23.27;2.25;;;;;;;26.58;59.29;98945.53;7314726;19;128815;-38
2022/08/19 09:09:14;;;;;;;34.65;3.28;;;;;;;26.60;59.61;98944.34;7312759;19;129324;-38
2022/08/19 09:11:49;;;;;;;38.30;3.97;;;;;;;26.61;59.03;98951.25;7313730;19;129710;-38
2022/08/19 09:14:32;;;;;;;13.15;1.58;;;;;;;26.54;58.86;98937.16;7312895;19;130403;-38
2022/08/19 09:17:03;;;;;;;16.05;1.85;;;;;;;26.64;58.17;98947.44;7308333;19;128943;-37
2022/08/19 09:19:29;;;;;;;20.88;2.30;;;;;;;26.62;58.74;98950.25;7313999;19;129288;-37
2022/08/19 09:21:55;;;;;;;;;;;;;;;26.70;59.80;98949.34;7313579;19;131138;-37
2022/08/19 09:24:21;;;;;;;34.00;3.03;;;;;;;26.66;58.59;98953.34;7312685;19;131035;-38
2022/08/19 09:26:46;;;;;;;17.20;1.93;;;;;;;26.64;58.55;98940.31;7314267;19;128933;-38
2022/08/19 09:29:12;;;;;;;15.73;1.80;;;;;;;26.65;58.34;98934.09;7312203;19;128904;-38
2022/08/19 09:31:38;;;;;;;44.40;4.60;;;;;;;26.63;57.66;98929.94;7313593;19;130225;-38
2022/08/19 09:34:08;;;;;;;33.90;3.30;;;;;;;26.57;58.24;98918.34;7312683;19;129650;-38
2022/08/19 09:36:35;;;;;;;15.43;1.88;;;;;;;26.38;54.67;98924.22;7314035;19;128823;-38
2022/08/19 09:39:04;;;;;;;15.15;1.63;;;;;;;26.18;53.27;98923.19;7313466;19;129104;-37
2022/08/19 09:41:30;;;;;;;29.75;3.10;;;;;;;26.33;55.32;98916.06;7311758;19;129173;-38
2022/08/19 09:43:57;;;;;;;26.43;2.60;;;;;;;26.45;57.94;98913.75;7311265;19;129855;-39
2022/08/19 09:46:27;;;;;;;17.83;1.98;;;;;;;26.51;57.94;98923.56;7314231;19;129265;-38
2022/08/19 09:48:53;;;;;;;10.43;1.38;;;;;;;26.54;57.88;98910.78;7312747;19;129548;-38
2022/08/19 09:51:23;;;;;;;16.75;1.77;;;;;;;26.57;58.02;98913.09;7313139;19;130118;-38
2022/08/19 09:53:50;;;;;;;47.00;4.53;;;;;;;26.57;57.77;98902.53;7311582;19;130443;-38
2022/08/19 09:56:18;;;;;;;17.48;1.90;;;;;;;26.58;58.09;98912.06;7312781;19;128819;-37
2022/08/19 09:58:44;;;;;;;20.38;2.33;;;;;;;26.57;57.40;98915.72;7312725;19;128946;-38
2022/08/19 10:01:16;;;;;;;7.37;1.27;;;;;;;26.58;59.32;98914.69;7312208;19;129979;-38
2022/08/19 10:03:42;;;;;;;36.42;3.40;;;;;;;26.59;57.24;98921.59;7310546;19;129680;-38
2022/08/19 10:06:08;;;;;;;27.17;2.43;;;;;;;26.59;58.13;98926.88;7313157;19;128912;-38
2022/08/19 10:08:36;;;;;;;16.67;1.70;;;;;;;26.59;57.87;98937.41;7312442;19;130129;-38
2022/08/19 10:11:03;;;;;;;18.65;2.03;;;;;;;26.60;58.22;98940.88;7312489;19;129602;-37
2022/08/19 10:13:30;;;;;;;39.95;3.67;;;;;;;26.60;58.71;98930.34;7311254;19;130180;-38
2022/08/19 10:15:57;;;;;;;;;;;;;;;26.67;59.58;98923.34;7313584;19;129119;-38
2022/08/19 10:18:23;;;;;;;15.57;1.77;;;;;;;26.61;58.61;98922.22;7312176;19;129442;-38
2022/08/19 10:20:50;;;;;;;15.55;1.75;;;;;;;26.60;58.44;98919.78;7311835;19;130263;-38
2022/08/19 10:23:17;;;;;;;31.80;2.80;;;;;;;26.54;55.88;98925.81;7311019;19;131563;-38
2022/08/19 10:25:43;;;;;;;31.63;2.88;;;;;;;26.10;53.24;98919.88;7311583;19;128781;-37
2022/08/19 10:28:11;;;;;;;16.37;1.90;;;;;;;26.27;54.60;98937.06;7317076;19;128754;-38
2022/08/19 10:30:37;;;;;;;17.20;1.98;;;;;;;26.35;57.75;98929.88;7315677;19;130198;-38
2022/08/19 10:33:03;;;;;;;25.85;2.38;;;;;;;26.48;57.55;98943.19;7317564;19;130332;-38
2022/08/19 10:35:29;;;;;;;25.63;2.50;;;;;;;26.54;57.95;98945.06;7316539;19;129503;-38
2022/08/19 10:37:59;;;;;;;15.23;1.83;;;;;;;26.56;58.04;98950.19;7319002;19;129065;-38
2022/08/19 10:40:26;;;;;;;8.32;1.10;;;;;;;26.49;58.11;98942.22;7318078;19;130948;-38
2022/08/19 10:42:52;;;;;;;17.13;1.98;;;;;;;26.58;57.33;98948.97;7317653;19;133150;-38
2022/08/19 10:45:18;;;;;;;34.13;2.95;;;;;;;26.58;57.30;98948.16;7317624;19;128911;-38
2022/08/19 10:47:43;;;;;;;16.43;1.70;;;;;;;26.60;57.57;98949.63;7319248;19;128863;-38
2022/08/19 10:52:53;;;;;;;13.70;1.52;;;;;;;26.59;58.34;98947.97;7318141;19;129472;-38
2022/08/19 10:58:15;;;;;;;34.70;3.20;;;;;;;26.61;59.77;98956.50;7319144;19;129272;-38
2022/08/19 11:00:42;;;;;;;31.05;2.95;;;;;;;26.53;57.64;98947.91;7317691;19;130231;-38
2022/08/19 11:03:08;;;;;;;11.35;1.40;;;;;;;26.58;57.68;98959.53;7318083;19;130446;-37
2022/08/19 11:05:33;;;;;;;16.67;2.03;;;;;;;26.60;58.64;98964.63;7314735;19;128909;-38
2022/08/19 11:07:59;;;;;;;8.00;1.07;;;;;;;26.58;57.98;98962.16;7317221;19;129104;-38
2022/08/19 11:10:24;;;;;;;28.17;2.70;;;;;;;26.40;54.96;98969.69;7315616;19;130167;-38
2022/08/19 11:12:53;;;;;;;16.13;1.70;;;;;;;26.14;53.34;98979.91;7317386;19;130324;-37
2022/08/19 11:15:19;;;;;;;6.25;0.98;;;;;;;26.28;56.32;98983.53;7315059;19;129048;-37
2022/08/19 11:17:44;;;;;;;21.90;2.13;;;;;;;26.41;57.64;98987.13;7317628;19;128879;-37
2022/08/19 11:20:14;;;;;;;30.43;3.03;;;;;;;26.51;58.69;98992.13;7317485;19;130811;-38
2022/08/19 11:22:41;;;;;;;17.70;1.60;;;;;;;26.54;57.58;98981.19;7316670;19;129648;-38
2022/08/19 11:25:10;;;;;;;14.38;1.75;;;;;;;26.57;58.21;98986.09;7314710;19;129056;-38
2022/08/19 11:27:44;;;;;;;19.02;2.13;;;;;;;26.57;58.99;98989.53;7316324;19;128801;-37
2022/08/19 11:30:12;;;;;;;29.65;2.80;;;;;;;26.60;58.50;98990.97;7315262;19;130802;-38
2022/08/19 11:32:38;;;;;;;20.73;2.15;;;;;;;26.60;56.88;98991.81;7317207;19;131004;-38
2022/08/19 11:35:03;;;;;;;22.67;2.60;;;;;;;26.62;58.43;98989.81;7314764;19;129403;-38
2022/08/19 11:37:29;;;;;;;14.97;1.63;;;;;;;26.62;58.14;98996.91;7317078;19;129443;-38
2022/08/19 11:39:54;;;;;;;40.33;3.43;;;;;;;26.62;58.42;98989.81;7315014;19;130639;-38